Terminal Aerodrome Forecast
Issued by NWS

Home | Current Version | Previous Version | Text Only | Print | Product List | Glossary Off
Versions: 1 2 3 4 5 6 7 8 9 10 11 12

000
FTUS45 KGGW 221135
TAFGDV
TAF
KGDV 221135Z 2212/2312 20010KT P6SM BKN070 WS020/28040KT
     FM221800 28016KT P6SM SCT200
     FM230200 VRB04KT P6SM FEW200
     FM230800 23006KT 5SM BR SCT035=

USA.gov is the U.S. government's official web portal to all federal, state and local government web resources and services.